Time;durP1;ratioP1;P1;durP2;ratioP2;P2;SDS_P1;SDS_P2;PMS_P1;PMS_P2;Temp;Humidity;BMP_temperature;BMP_pressure;BME280_temperature;BME280_humidity;BME280_pressure;Samples;Min_cycle;Max_cycle;Signal;HPM_P1;HPM_P2
2023/09/06 00:01:48;;;;;;;8.30;6.00;;;;;;;;;;5089079;28;20474;-79
2023/09/06 00:04:15;;;;;;;6.50;5.90;;;;;;;;;;5088833;28;20482;-79
2023/09/06 00:12:22;;;;;;;10.80;7.03;;;;;;;;;;5056507;28;20445;-79
2023/09/06 00:14:51;;;;;;;10.70;6.80;;;;;;;;;;5039987;28;20485;-80
2023/09/06 00:17:18;;;;;;;6.97;6.00;;;;;;;;;;5039803;28;20468;-80
2023/09/06 00:19:45;;;;;;;8.33;7.00;;;;;;;;;;5040488;28;20521;-80
2023/09/06 00:22:12;;;;;;;8.17;6.87;;;;;;;;;;5040932;28;20442;-80
2023/09/06 00:24:39;;;;;;;7.83;6.60;;;;;;;;;;5040389;28;20958;-80
2023/09/06 00:27:07;;;;;;;8.60;6.53;;;;;;;;;;5041535;28;21025;-80
2023/09/06 00:29:35;;;;;;;7.67;6.50;;;;;;;;;;5040332;28;20446;-80
2023/09/06 00:32:03;;;;;;;7.80;6.30;;;;;;;;;;5041030;28;20545;-80
2023/09/06 00:34:33;;;;;;;8.47;6.90;;;;;;;;;;5039523;28;21047;-80
2023/09/06 00:37:00;;;;;;;8.97;6.83;;;;;;;;;;5038436;28;20453;-80
2023/09/06 00:39:30;;;;;;;7.17;5.73;;;;;;;;;;5036670;28;20816;-79
2023/09/06 00:42:00;;;;;;;8.20;6.87;;;;;;;;;;5036899;28;20457;-79
2023/09/06 00:44:27;;;;;;;8.40;6.80;;;;;;;;;;5036955;28;20465;-80
2023/09/06 00:46:54;;;;;;;7.70;6.30;;;;;;;;;;5037739;28;20537;-80
2023/09/06 00:49:23;;;;;;;6.97;5.90;;;;;;;;;;5040117;28;20458;-80
2023/09/06 00:51:50;;;;;;;8.43;6.30;;;;;;;;;;5038771;28;20446;-79
2023/09/06 00:54:17;;;;;;;8.40;7.43;;;;;;;;;;5039632;28;20482;-79
2023/09/06 00:56:44;;;;;;;6.67;5.97;;;;;;;;;;5038789;28;20453;-80
2023/09/06 00:59:11;;;;;;;7.57;6.60;;;;;;;;;;5037775;28;20516;-79
2023/09/06 01:01:39;;;;;;;6.87;6.17;;;;;;;;;;5036664;28;20472;-80
2023/09/06 01:04:06;;;;;;;9.10;7.23;;;;;;;;;;5036855;28;20477;-79
2023/09/06 01:06:35;;;;;;;12.90;7.20;;;;;;;;;;5036644;28;20445;-80
2023/09/06 01:09:05;;;;;;;9.57;8.17;;;;;;;;;;5036092;28;20458;-80
2023/09/06 01:11:37;;;;;;;9.17;7.20;;;;;;;;;;5036785;28;20456;-79
2023/09/06 01:14:04;;;;;;;9.83;7.17;;;;;;;;;;5038545;28;20489;-79
2023/09/06 01:16:33;;;;;;;8.97;7.23;;;;;;;;;;5038722;28;20934;-79
2023/09/06 01:19:00;;;;;;;10.13;7.53;;;;;;;;;;5038820;28;20450;-78
2023/09/06 01:21:29;;;;;;;7.30;6.40;;;;;;;;;;5038642;28;20497;-79
2023/09/06 01:23:58;;;;;;;9.83;8.20;;;;;;;;;;5039189;28;20507;-79
2023/09/06 01:26:25;;;;;;;8.53;6.60;;;;;;;;;;5038910;28;20460;-79
2023/09/06 01:28:53;;;;;;;13.90;7.83;;;;;;;;;;5038597;28;20504;-79
2023/09/06 01:31:20;;;;;;;12.43;6.63;;;;;;;;;;5038431;28;20470;-79
2023/09/06 01:33:47;;;;;;;10.57;7.60;;;;;;;;;;5038685;28;20481;-79
2023/09/06 01:36:14;;;;;;;8.20;7.40;;;;;;;;;;5037806;28;20921;-79
2023/09/06 01:38:42;;;;;;;10.53;7.13;;;;;;;;;;5037947;28;20464;-79
2023/09/06 01:41:12;;;;;;;10.00;6.90;;;;;;;;;;5038247;28;20464;-79
2023/09/06 01:43:39;;;;;;;9.40;6.40;;;;;;;;;;5038416;28;20470;-80
2023/09/06 01:46:06;;;;;;;10.63;6.73;;;;;;;;;;5037805;28;20536;-79
2023/09/06 01:48:33;;;;;;;14.53;7.70;;;;;;;;;;5038313;28;20457;-79
2023/09/06 01:51:01;;;;;;;8.80;6.80;;;;;;;;;;5038428;28;20825;-79
2023/09/06 01:53:29;;;;;;;9.70;6.40;;;;;;;;;;5038630;28;20486;-79
2023/09/06 01:55:56;;;;;;;9.83;7.83;;;;;;;;;;5037971;28;21000;-79
2023/09/06 01:58:24;;;;;;;10.20;7.10;;;;;;;;;;5038443;28;20462;-79
2023/09/06 02:00:53;;;;;;;19.87;10.60;;;;;;;;;;5038288;28;20490;-79
2023/09/06 02:03:20;;;;;;;26.27;9.90;;;;;;;;;;5037801;28;20480;-78
2023/09/06 02:05:47;;;;;;;19.07;11.67;;;;;;;;;;5037422;28;20524;-79
2023/09/06 02:08:16;;;;;;;16.27;9.50;;;;;;;;;;5038184;28;20464;-79
2023/09/06 02:10:44;;;;;;;18.60;9.70;;;;;;;;;;5038364;28;20884;-79
2023/09/06 02:13:11;;;;;;;15.07;8.20;;;;;;;;;;5038614;28;20489;-79
2023/09/06 02:15:40;;;;;;;17.73;8.90;;;;;;;;;;5038444;28;20852;-79
2023/09/06 02:18:07;;;;;;;12.30;8.40;;;;;;;;;;5038342;28;20485;-79
2023/09/06 02:20:35;;;;;;;9.87;7.97;;;;;;;;;;5037678;28;20441;-79
2023/09/06 02:23:02;;;;;;;14.00;8.10;;;;;;;;;;5037862;28;20891;-79
2023/09/06 02:25:30;;;;;;;13.27;7.90;;;;;;;;;;5037705;28;20570;-79
2023/09/06 02:27:57;;;;;;;16.33;9.07;;;;;;;;;;5036834;28;20488;-79
2023/09/06 02:30:25;;;;;;;13.23;9.80;;;;;;;;;;5037423;28;20513;-79
2023/09/06 02:32:56;;;;;;;14.70;7.40;;;;;;;;;;5038212;28;20492;-79
2023/09/06 02:35:23;;;;;;;15.03;9.00;;;;;;;;;;5037302;28;21002;-79
2023/09/06 02:37:50;;;;;;;13.30;7.67;;;;;;;;;;5037944;28;20488;-80
2023/09/06 02:40:20;;;;;;;10.97;8.80;;;;;;;;;;5037638;28;20480;-79
2023/09/06 02:42:49;;;;;;;13.43;8.13;;;;;;;;;;5038589;28;20477;-79
2023/09/06 02:45:16;;;;;;;12.07;7.77;;;;;;;;;;5039042;28;20509;-79
2023/09/06 02:47:48;;;;;;;7.90;6.97;;;;;;;;;;5037886;28;20536;-79
2023/09/06 02:50:16;;;;;;;15.00;8.03;;;;;;;;;;5038101;28;20511;-79
2023/09/06 02:52:45;;;;;;;10.30;7.90;;;;;;;;;;5040091;28;20887;-79
2023/09/06 02:55:13;;;;;;;11.80;8.60;;;;;;;;;;5041534;28;20559;-79
2023/09/06 02:57:41;;;;;;;10.80;7.70;;;;;;;;;;5041329;28;20528;-79
2023/09/06 03:00:24;;;;;;;12.70;8.60;;;;;;;;;;5041266;28;20842;-79
2023/09/06 03:02:52;;;;;;;15.00;9.67;;;;;;;;;;5041102;28;20497;-79
2023/09/06 03:05:21;;;;;;;17.13;8.30;;;;;;;;;;5041608;28;20461;-79
2023/09/06 03:07:53;;;;;;;12.47;8.90;;;;;;;;;;5041835;28;20488;-79
2023/09/06 03:10:22;;;;;;;12.90;8.37;;;;;;;;;;5041178;28;20477;-79
2023/09/06 03:12:54;;;;;;;11.80;8.23;;;;;;;;;;5041106;28;20504;-79
2023/09/06 03:15:22;;;;;;;13.80;8.27;;;;;;;;;;5041575;28;20481;-79
2023/09/06 03:17:51;;;;;;;8.80;7.50;;;;;;;;;;5041613;28;20457;-79
2023/09/06 03:20:31;;;;;;;8.50;6.70;;;;;;;;;;5039928;28;20998;-79
2023/09/06 03:23:00;;;;;;;10.50;7.70;;;;;;;;;;5040967;28;20508;-79
2023/09/06 03:25:28;;;;;;;9.13;7.90;;;;;;;;;;5040443;28;20449;-79
2023/09/06 03:28:00;;;;;;;10.00;7.90;;;;;;;;;;5040443;28;20881;-79
2023/09/06 03:30:27;;;;;;;13.07;7.77;;;;;;;;;;5040171;28;20461;-79
2023/09/06 03:32:55;;;;;;;8.83;7.57;;;;;;;;;;5041318;28;20480;-79
2023/09/06 03:35:22;;;;;;;7.93;7.00;;;;;;;;;;5040334;28;20493;-79
2023/09/06 03:37:53;;;;;;;10.97;8.40;;;;;;;;;;5036751;28;20532;-77
2023/09/06 03:40:34;;;;;;;9.53;7.93;;;;;;;;;;5036044;28;20982;-76
2023/09/06 03:43:04;;;;;;;7.20;6.47;;;;;;;;;;5035210;28;20473;-76
2023/09/06 03:45:31;;;;;;;11.50;7.30;;;;;;;;;;5035445;28;20457;-76
2023/09/06 03:47:58;;;;;;;8.60;7.70;;;;;;;;;;5034978;28;20453;-77
2023/09/06 03:50:26;;;;;;;7.97;6.83;;;;;;;;;;5034882;28;20450;-76
2023/09/06 03:52:53;;;;;;;9.17;7.83;;;;;;;;;;5034727;28;20469;-76
2023/09/06 03:55:24;;;;;;;10.13;8.03;;;;;;;;;;5034749;28;20485;-76
2023/09/06 03:57:52;;;;;;;8.70;7.80;;;;;;;;;;5035134;28;20772;-76
2023/09/06 04:00:27;;;;;;;9.40;7.50;;;;;;;;;;5035044;28;20461;-76
2023/09/06 04:02:55;;;;;;;7.10;6.40;;;;;;;;;;5034914;28;20557;-76
2023/09/06 04:05:26;;;;;;;8.17;6.97;;;;;;;;;;5034607;28;20887;-77
2023/09/06 04:07:55;;;;;;;7.17;6.43;;;;;;;;;;5034811;28;20458;-76
2023/09/06 04:10:24;;;;;;;8.47;7.47;;;;;;;;;;5035149;28;20976;-76
2023/09/06 04:12:58;;;;;;;14.00;7.77;;;;;;;;;;5034781;28;20560;-77
2023/09/06 04:15:25;;;;;;;13.77;7.60;;;;;;;;;;5034873;28;21005;-76
2023/09/06 04:17:58;;;;;;;9.07;7.17;;;;;;;;;;5034770;28;20458;-77
2023/09/06 04:20:27;;;;;;;10.40;7.23;;;;;;;;;;5034846;28;20434;-77
2023/09/06 04:22:55;;;;;;;12.13;8.03;;;;;;;;;;5034834;28;20474;-77
2023/09/06 04:25:26;;;;;;;10.50;8.47;;;;;;;;;;5034592;28;20467;-76
2023/09/06 04:27:54;;;;;;;15.23;9.20;;;;;;;;;;5034609;28;20529;-76
2023/09/06 04:30:58;;;;;;;13.00;9.67;;;;;;;;;;5034457;28;20476;-76
2023/09/06 04:33:25;;;;;;;15.93;8.77;;;;;;;;;;5034218;28;20474;-76
2023/09/06 04:35:52;;;;;;;11.00;8.63;;;;;;;;;;5033447;28;20486;-76
2023/09/06 04:38:20;;;;;;;9.90;8.70;;;;;;;;;;5038244;28;20458;-79
2023/09/06 04:40:51;;;;;;;9.57;8.57;;;;;;;;;;5038150;28;20536;-79
2023/09/06 04:43:19;;;;;;;12.60;8.70;;;;;;;;;;5038675;28;20523;-79
2023/09/06 04:45:47;;;;;;;10.50;9.13;;;;;;;;;;5038082;28;20528;-79
2023/09/06 04:48:16;;;;;;;16.23;8.70;;;;;;;;;;5037656;28;20480;-78
2023/09/06 04:50:44;;;;;;;9.07;8.20;;;;;;;;;;5037453;28;20446;-79
2023/09/06 04:53:12;;;;;;;12.57;9.60;;;;;;;;;;5037378;28;20488;-79
2023/09/06 04:55:40;;;;;;;11.20;9.13;;;;;;;;;;5038018;28;20560;-79
2023/09/06 04:58:09;;;;;;;11.47;9.37;;;;;;;;;;5038387;28;20457;-79
2023/09/06 05:00:38;;;;;;;11.07;9.07;;;;;;;;;;5038047;28;20505;-79
2023/09/06 05:03:08;;;;;;;16.37;8.60;;;;;;;;;;5037721;28;20536;-79
2023/09/06 05:05:36;;;;;;;8.80;7.50;;;;;;;;;;5037747;28;20540;-80
2023/09/06 05:08:04;;;;;;;13.93;8.73;;;;;;;;;;5037904;28;20803;-79
2023/09/06 05:10:31;;;;;;;13.90;7.50;;;;;;;;;;5044571;28;20500;-79
2023/09/06 05:12:58;;;;;;;9.73;7.40;;;;;;;;;;5053004;28;20453;-80
2023/09/06 05:15:27;;;;;;;10.87;8.00;;;;;;;;;;5038077;28;20473;-80
2023/09/06 05:17:54;;;;;;;8.90;7.57;;;;;;;;;;5038399;28;20449;-81
2023/09/06 05:20:26;;;;;;;20.10;8.30;;;;;;;;;;5039859;28;20459;-81
2023/09/06 05:22:53;;;;;;;11.23;7.43;;;;;;;;;;5056630;28;20467;-81
2023/09/06 05:25:20;;;;;;;17.30;7.63;;;;;;;;;;5055854;28;20895;-81
2023/09/06 05:27:48;;;;;;;10.63;8.30;;;;;;;;;;5056164;28;20444;-82
2023/09/06 05:30:15;;;;;;;10.80;7.37;;;;;;;;;;5055216;28;20449;-81
2023/09/06 05:32:44;;;;;;;8.80;7.73;;;;;;;;;;5056413;28;20453;-80
2023/09/06 05:35:11;;;;;;;8.93;8.03;;;;;;;;;;5056253;28;20524;-80
2023/09/06 05:37:40;;;;;;;8.00;6.97;;;;;;;;;;5056300;28;20500;-82
2023/09/06 05:40:08;;;;;;;10.20;7.80;;;;;;;;;;5055957;28;20452;-81
2023/09/06 05:42:41;;;;;;;9.43;8.20;;;;;;;;;;5056200;28;20575;-81
2023/09/06 05:45:11;;;;;;;9.33;8.33;;;;;;;;;;5056486;28;20460;-80
2023/09/06 05:47:39;;;;;;;10.20;7.83;;;;;;;;;;5052124;28;20453;-80
2023/09/06 05:50:09;;;;;;;9.20;8.00;;;;;;;;;;5034936;28;20529;-80
2023/09/06 05:52:38;;;;;;;8.37;7.47;;;;;;;;;;5035693;28;20504;-80
2023/09/06 05:55:38;;;;;;;11.87;8.23;;;;;;;;;;5037199;28;20584;-79
2023/09/06 05:58:28;;;;;;;11.97;8.10;;;;;;;;;;5042871;28;20515;-81
2023/09/06 06:01:24;;;;;;;13.50;9.10;;;;;;;;;;5044198;28;20469;-79
2023/09/06 06:04:13;;;;;;;14.30;8.53;;;;;;;;;;5043719;28;20485;-81
2023/09/06 06:06:42;;;;;;;8.03;6.30;;;;;;;;;;5042136;28;20461;-79
2023/09/06 06:09:13;;;;;;;9.17;6.10;;;;;;;;;;5040376;28;20477;-80
2023/09/06 06:11:41;;;;;;;6.73;5.60;;;;;;;;;;5041512;28;20471;-80
2023/09/06 06:14:08;;;;;;;8.07;5.80;;;;;;;;;;5040881;28;20603;-80
2023/09/06 06:16:36;;;;;;;4.80;4.33;;;;;;;;;;5039993;28;20492;-80
2023/09/06 06:19:03;;;;;;;5.63;4.43;;;;;;;;;;5039554;28;20484;-80
2023/09/06 06:21:31;;;;;;;5.40;4.90;;;;;;;;;;5039147;28;20937;-80
2023/09/06 06:24:00;;;;;;;5.27;4.77;;;;;;;;;;5038899;28;20477;-81
2023/09/06 06:26:27;;;;;;;4.80;4.40;;;;;;;;;;5039717;28;20446;-80
2023/09/06 06:28:55;;;;;;;9.70;4.30;;;;;;;;;;5044471;28;20548;-81
2023/09/06 06:31:23;;;;;;;7.70;5.33;;;;;;;;;;5044334;28;20461;-81
2023/09/06 06:33:50;;;;;;;5.03;4.03;;;;;;;;;;5043253;28;20472;-80
2023/09/06 06:36:18;;;;;;;5.57;3.83;;;;;;;;;;5041258;28;20481;-80
2023/09/06 06:38:46;;;;;;;9.80;4.83;;;;;;;;;;5044456;28;20461;-80
2023/09/06 06:41:20;;;;;;;8.43;4.60;;;;;;;;;;5044505;28;20449;-80
2023/09/06 06:43:48;;;;;;;6.63;4.10;;;;;;;;;;5043200;28;20473;-80
2023/09/06 06:46:24;;;;;;;9.20;3.90;;;;;;;;;;5043499;28;20461;-80
2023/09/06 06:48:52;;;;;;;4.57;4.20;;;;;;;;;;5043408;28;20496;-79
2023/09/06 06:51:19;;;;;;;11.27;4.60;;;;;;;;;;5043829;28;20445;-80
2023/09/06 06:53:46;;;;;;;4.60;4.20;;;;;;;;;;5041799;28;20842;-80
2023/09/06 06:56:14;;;;;;;5.63;4.33;;;;;;;;;;5043055;28;20473;-82
2023/09/06 06:58:42;;;;;;;11.83;4.63;;;;;;;;;;5044785;28;20453;-82
2023/09/06 07:01:10;;;;;;;4.60;4.07;;;;;;;;;;5050542;28;20479;-82
2023/09/06 07:03:37;;;;;;;4.77;4.37;;;;;;;;;;5043612;28;20473;-80
2023/09/06 07:06:05;;;;;;;4.67;4.27;;;;;;;;;;5042792;28;20453;-79
2023/09/06 07:08:32;;;;;;;6.03;4.53;;;;;;;;;;5043325;28;20473;-80
2023/09/06 07:10:59;;;;;;;5.40;5.00;;;;;;;;;;5041918;28;20949;-81
2023/09/06 07:13:27;;;;;;;4.40;4.00;;;;;;;;;;5042828;28;20783;-81
2023/09/06 07:15:56;;;;;;;5.67;3.77;;;;;;;;;;5042784;28;20531;-79
2023/09/06 07:18:23;;;;;;;4.20;3.80;;;;;;;;;;5042090;28;20461;-81
2023/09/06 07:20:50;;;;;;;4.23;3.93;;;;;;;;;;5042358;28;20601;-80
2023/09/06 07:23:18;;;;;;;4.80;3.60;;;;;;;;;;5043410;28;20529;-81
2023/09/06 07:25:46;;;;;;;5.20;3.67;;;;;;;;;;5043941;28;20457;-80
2023/09/06 07:28:13;;;;;;;4.53;4.13;;;;;;;;;;5043511;28;20449;-79
2023/09/06 07:30:41;;;;;;;4.93;3.57;;;;;;;;;;5043468;28;20488;-80
2023/09/06 07:33:09;;;;;;;6.97;3.80;;;;;;;;;;5044950;28;20484;-81
2023/09/06 07:35:36;;;;;;;5.73;4.40;;;;;;;;;;5044312;28;20445;-80
2023/09/06 07:38:04;;;;;;;6.07;5.47;;;;;;;;;;5041317;28;20496;-80
2023/09/06 07:40:31;;;;;;;6.70;4.80;;;;;;;;;;5043628;28;20518;-82
2023/09/06 07:42:59;;;;;;;5.20;4.70;;;;;;;;;;5042187;28;20489;-82
2023/09/06 07:45:26;;;;;;;8.00;5.30;;;;;;;;;;5041874;28;20452;-81
2023/09/06 07:47:53;;;;;;;7.10;4.90;;;;;;;;;;5042109;28;20450;-81
2023/09/06 07:50:22;;;;;;;4.50;4.10;;;;;;;;;;5043239;28;20452;-81
2023/09/06 07:52:51;;;;;;;4.77;4.07;;;;;;;;;;5043861;28;20612;-81
2023/09/06 07:55:18;;;;;;;4.17;3.87;;;;;;;;;;5043226;28;20461;-81
2023/09/06 07:57:45;;;;;;;5.80;4.07;;;;;;;;;;5042987;28;20593;-81
2023/09/06 08:00:14;;;;;;;4.90;4.50;;;;;;;;;;5044687;28;20462;-81
2023/09/06 08:02:43;;;;;;;4.67;4.20;;;;;;;;;;5045838;28;20509;-81
2023/09/06 08:05:10;;;;;;;7.40;4.73;;;;;;;;;;5046346;28;20537;-81
2023/09/06 08:07:39;;;;;;;4.63;4.23;;;;;;;;;;5046030;28;20454;-82
2023/09/06 08:10:09;;;;;;;5.27;4.37;;;;;;;;;;5044652;28;20509;-81
2023/09/06 08:12:36;;;;;;;7.43;4.57;;;;;;;;;;5044625;28;20887;-81
2023/09/06 08:15:05;;;;;;;4.80;4.00;;;;;;;;;;5044308;28;20565;-80
2023/09/06 08:17:32;;;;;;;5.33;4.50;;;;;;;;;;5043191;28;20489;-80
2023/09/06 08:19:59;;;;;;;5.67;3.90;;;;;;;;;;5044570;28;20466;-80
2023/09/06 08:22:27;;;;;;;6.17;4.30;;;;;;;;;;5045766;28;20496;-80
2023/09/06 08:24:56;;;;;;;6.23;4.30;;;;;;;;;;5045753;28;20458;-80
2023/09/06 08:27:23;;;;;;;13.40;5.53;;;;;;;;;;5046140;28;20488;-79
2023/09/06 08:29:50;;;;;;;10.87;5.07;;;;;;;;;;5044824;28;20466;-81
2023/09/06 08:32:18;;;;;;;5.10;4.40;;;;;;;;;;5044586;28;20561;-80
2023/09/06 08:34:45;;;;;;;6.83;4.83;;;;;;;;;;5045160;28;20891;-83
2023/09/06 08:37:12;;;;;;;4.60;4.20;;;;;;;;;;5040159;28;20500;-81
2023/09/06 08:39:39;;;;;;;5.20;4.70;;;;;;;;;;5037442;28;20457;-81
2023/09/06 08:42:08;;;;;;;7.50;5.07;;;;;;;;;;5038573;28;20474;-82
2023/09/06 08:44:36;;;;;;;11.03;5.63;;;;;;;;;;5037344;28;20449;-80
2023/09/06 08:47:04;;;;;;;9.47;5.07;;;;;;;;;;5037172;28;20514;-80
2023/09/06 08:49:31;;;;;;;8.33;5.23;;;;;;;;;;5036523;28;20454;-83
2023/09/06 08:52:00;;;;;;;8.77;4.57;;;;;;;;;;5035691;28;20891;-81
2023/09/06 08:54:28;;;;;;;8.87;4.50;;;;;;;;;;5037040;28;20442;-80
2023/09/06 08:56:55;;;;;;;4.10;3.77;;;;;;;;;;5037303;28;21027;-82
2023/09/06 08:59:24;;;;;;;5.63;4.63;;;;;;;;;;5035463;28;21006;-83
2023/09/06 09:01:51;;;;;;;5.33;4.43;;;;;;;;;;5036336;28;20962;-82
2023/09/06 09:04:19;;;;;;;5.33;4.83;;;;;;;;;;5035773;28;20560;-81
2023/09/06 09:06:46;;;;;;;5.80;4.20;;;;;;;;;;5035961;28;20445;-82
2023/09/06 09:09:17;;;;;;;5.17;3.70;;;;;;;;;;5035721;28;21034;-82
2023/09/06 09:11:50;;;;;;;6.17;4.40;;;;;;;;;;5035811;28;20454;-82
2023/09/06 09:14:21;;;;;;;6.83;4.73;;;;;;;;;;5035997;28;20707;-81
2023/09/06 09:16:55;;;;;;;5.70;4.40;;;;;;;;;;5036739;28;20461;-81
2023/09/06 09:19:23;;;;;;;6.27;4.70;;;;;;;;;;5039179;28;20921;-81
2023/09/06 09:21:51;;;;;;;6.60;5.10;;;;;;;;;;5040051;28;20521;-80
2023/09/06 09:24:25;;;;;;;9.30;4.40;;;;;;;;;;5039320;28;20473;-81
2023/09/06 09:26:53;;;;;;;3.67;3.37;;;;;;;;;;5041067;28;20495;-79
2023/09/06 09:29:20;;;;;;;4.60;4.07;;;;;;;;;;5040004;28;20462;-83
2023/09/06 09:31:50;;;;;;;6.40;3.77;;;;;;;;;;5040581;28;20454;-80
2023/09/06 09:34:19;;;;;;;13.70;4.63;;;;;;;;;;5041288;28;20584;-79
2023/09/06 09:36:52;;;;;;;4.63;4.23;;;;;;;;;;5041782;28;20533;-79
2023/09/06 09:39:19;;;;;;;4.23;3.80;;;;;;;;;;5044249;28;20472;-81
2023/09/06 09:41:47;;;;;;;5.57;3.87;;;;;;;;;;5045514;28;20456;-80
2023/09/06 09:44:15;;;;;;;5.00;4.50;;;;;;;;;;5044306;28;20477;-85
2023/09/06 09:46:44;;;;;;;5.10;4.27;;;;;;;;;;5044616;28;20454;-84
2023/09/06 09:49:12;;;;;;;6.00;4.30;;;;;;;;;;5045425;28;20997;-83
2023/09/06 09:51:42;;;;;;;7.13;3.90;;;;;;;;;;5046115;28;20457;-83
2023/09/06 09:54:11;;;;;;;8.50;3.80;;;;;;;;;;5044415;28;20557;-83
2023/09/06 09:56:39;;;;;;;4.47;3.70;;;;;;;;;;5043317;28;20492;-83
2023/09/06 09:59:06;;;;;;;8.43;4.17;;;;;;;;;;5043789;28;20576;-83
2023/09/06 10:01:33;;;;;;;5.00;4.13;;;;;;;;;;5045024;28;20434;-84
2023/09/06 10:04:01;;;;;;;13.23;3.70;;;;;;;;;;5048532;28;20466;-85
2023/09/06 10:06:31;;;;;;;3.70;3.40;;;;;;;;;;5048962;28;20493;-82
2023/09/06 10:09:04;;;;;;;4.17;3.60;;;;;;;;;;5051147;28;20548;-82
2023/09/06 10:11:33;;;;;;;5.53;3.63;;;;;;;;;;5049499;28;20442;-82
2023/09/06 10:14:01;;;;;;;4.80;4.10;;;;;;;;;;5050887;28;20560;-81
2023/09/06 10:16:28;;;;;;;3.57;3.13;;;;;;;;;;5050763;28;20507;-80
2023/09/06 10:18:55;;;;;;;6.47;3.77;;;;;;;;;;5051809;28;20496;-81
2023/09/06 10:21:23;;;;;;;4.73;4.23;;;;;;;;;;5049450;28;20492;-81
2023/09/06 10:23:50;;;;;;;7.10;3.43;;;;;;;;;;5049075;28;20494;-81
2023/09/06 10:26:27;;;;;;;3.70;3.40;;;;;;;;;;5044581;28;20499;-81
2023/09/06 10:28:57;;;;;;;4.80;3.63;;;;;;;;;;5043492;28;20764;-80
2023/09/06 10:31:34;;;;;;;4.43;2.97;;;;;;;;;;5042147;28;20526;-81
2023/09/06 10:34:02;;;;;;;4.57;3.70;;;;;;;;;;5045024;28;20464;-80
2023/09/06 10:36:29;;;;;;;4.40;3.40;;;;;;;;;;5041720;28;20484;-80
2023/09/06 10:39:14;;;;;;;7.30;3.33;;;;;;;;;;5039172;28;20489;-81
2023/09/06 10:42:02;;;;;;;4.33;3.23;;;;;;;;;;5042570;28;20461;-81
2023/09/06 10:44:30;;;;;;;6.03;4.00;;;;;;;;;;5043682;28;20489;-79
2023/09/06 10:46:57;;;;;;;5.43;3.87;;;;;;;;;;5041445;28;20946;-79
2023/09/06 10:49:25;;;;;;;3.60;3.30;;;;;;;;;;5041724;28;20461;-80
2023/09/06 10:52:02;;;;;;;4.00;3.20;;;;;;;;;;5042676;28;20520;-79
2023/09/06 10:54:34;;;;;;;3.77;3.30;;;;;;;;;;5042765;28;20488;-81
2023/09/06 10:57:05;;;;;;;3.83;3.00;;;;;;;;;;5042144;28;20454;-80
2023/09/06 10:59:33;;;;;;;5.03;3.40;;;;;;;;;;5044053;28;20469;-82
2023/09/06 11:02:16;;;;;;;6.10;3.77;;;;;;;;;;5044656;28;20461;-81
2023/09/06 11:04:43;;;;;;;4.60;3.80;;;;;;;;;;5042557;28;20449;-82
2023/09/06 11:07:10;;;;;;;5.73;3.53;;;;;;;;;;5041284;28;20484;-80
2023/09/06 11:09:50;;;;;;;3.93;3.57;;;;;;;;;;5041078;28;21022;-79
2023/09/06 11:12:19;;;;;;;3.70;2.80;;;;;;;;;;5041959;28;20462;-81
2023/09/06 11:14:55;;;;;;;3.70;3.40;;;;;;;;;;5042168;28;20480;-80
2023/09/06 11:17:23;;;;;;;4.00;3.60;;;;;;;;;;5040523;28;20814;-80
2023/09/06 11:19:51;;;;;;;3.63;3.30;;;;;;;;;;5041050;28;20805;-80
2023/09/06 11:22:18;;;;;;;3.50;3.20;;;;;;;;;;5039353;28;20568;-78
2023/09/06 11:24:48;;;;;;;8.90;3.80;;;;;;;;;;5039245;28;20458;-80
2023/09/06 11:27:21;;;;;;;11.20;3.77;;;;;;;;;;5039823;28;20516;-83
2023/09/06 11:29:50;;;;;;;3.60;3.30;;;;;;;;;;5040402;28;20561;-82
2023/09/06 11:32:18;;;;;;;3.37;3.07;;;;;;;;;;5040542;28;20474;-80
2023/09/06 11:34:45;;;;;;;3.47;3.03;;;;;;;;;;5040173;28;20887;-81
2023/09/06 11:37:15;;;;;;;6.23;3.53;;;;;;;;;;5038940;28;20907;-83
2023/09/06 11:39:43;;;;;;;5.37;4.10;;;;;;;;;;5040058;28;20561;-81
2023/09/06 11:42:13;;;;;;;3.93;3.50;;;;;;;;;;5039748;28;20464;-81
2023/09/06 11:44:47;;;;;;;4.40;3.73;;;;;;;;;;5039768;28;20473;-82
2023/09/06 11:47:16;;;;;;;4.30;3.90;;;;;;;;;;5040944;28;20816;-81
2023/09/06 11:49:45;;;;;;;3.83;3.10;;;;;;;;;;5039712;28;20521;-81
2023/09/06 11:52:15;;;;;;;4.93;3.13;;;;;;;;;;5038953;28;20891;-80
2023/09/06 11:54:44;;;;;;;4.30;2.80;;;;;;;;;;5039352;28;20454;-81
2023/09/06 11:57:18;;;;;;;4.67;3.23;;;;;;;;;;5039607;28;20504;-81
2023/09/06 11:59:50;;;;;;;3.50;3.20;;;;;;;;;;5041451;28;20482;-83
2023/09/06 12:02:19;;;;;;;7.23;3.53;;;;;;;;;;5043067;28;20529;-83
2023/09/06 12:04:54;;;;;;;3.50;3.07;;;;;;;;;;5043669;28;20461;-82
2023/09/06 12:07:24;;;;;;;3.63;3.20;;;;;;;;;;5041771;28;20472;-82
2023/09/06 12:09:54;;;;;;;4.40;3.50;;;;;;;;;;5043232;28;20457;-83
2023/09/06 12:12:21;;;;;;;4.93;3.80;;;;;;;;;;5041633;28;20558;-82
2023/09/06 12:14:51;;;;;;;7.40;4.00;;;;;;;;;;5042456;28;20834;-81
2023/09/06 12:17:19;;;;;;;3.47;3.17;;;;;;;;;;5042040;28;20465;-83
2023/09/06 12:19:46;;;;;;;6.63;3.67;;;;;;;;;;5041438;28;20539;-81
2023/09/06 12:22:14;;;;;;;4.20;3.90;;;;;;;;;;5042387;28;21003;-81
2023/09/06 12:24:45;;;;;;;3.30;3.00;;;;;;;;;;5041308;28;20470;-85
2023/09/06 12:27:14;;;;;;;7.23;3.80;;;;;;;;;;5042359;28;20488;-81
2023/09/06 12:29:42;;;;;;;5.40;3.60;;;;;;;;;;5041071;28;20465;-80
2023/09/06 12:32:11;;;;;;;3.47;2.87;;;;;;;;;;5042800;28;20899;-79
2023/09/06 12:34:39;;;;;;;7.10;3.20;;;;;;;;;;5044125;28;20481;-80
2023/09/06 12:37:08;;;;;;;5.70;3.53;;;;;;;;;;5045364;28;20496;-81
2023/09/06 12:39:35;;;;;;;5.03;3.03;;;;;;;;;;5037279;28;20533;-80
2023/09/06 12:42:07;;;;;;;8.00;3.53;;;;;;;;;;5038463;28;20454;-81
2023/09/06 12:44:34;;;;;;;4.23;3.10;;;;;;;;;;5038944;28;20466;-80
2023/09/06 12:47:01;;;;;;;8.53;3.67;;;;;;;;;;5038159;28;20758;-80
2023/09/06 12:49:30;;;;;;;3.50;3.20;;;;;;;;;;5038850;28;20525;-80
2023/09/06 12:51:57;;;;;;;4.13;3.10;;;;;;;;;;5037062;28;20450;-80
2023/09/06 12:54:24;;;;;;;4.03;3.47;;;;;;;;;;5038688;28;20598;-81
2023/09/06 12:56:52;;;;;;;4.60;3.60;;;;;;;;;;5037076;28;20492;-80
2023/09/06 12:59:19;;;;;;;3.53;3.20;;;;;;;;;;5038066;28;20584;-80
2023/09/06 13:01:46;;;;;;;4.50;3.27;;;;;;;;;;5038793;28;20460;-80
2023/09/06 13:04:13;;;;;;;3.00;2.70;;;;;;;;;;5039537;28;20470;-79
2023/09/06 13:06:43;;;;;;;3.23;2.93;;;;;;;;;;5038921;28;20445;-80
2023/09/06 13:09:13;;;;;;;3.57;3.10;;;;;;;;;;5039420;28;20490;-80
2023/09/06 13:11:40;;;;;;;5.37;2.97;;;;;;;;;;5039555;28;20860;-80
2023/09/06 13:14:07;;;;;;;3.10;2.80;;;;;;;;;;5039073;28;20990;-80
2023/09/06 13:16:35;;;;;;;2.70;2.50;;;;;;;;;;5038970;28;20499;-80
2023/09/06 13:19:02;;;;;;;4.80;2.83;;;;;;;;;;5037048;28;20572;-80
2023/09/06 13:21:30;;;;;;;3.80;2.90;;;;;;;;;;5037584;28;20458;-78
2023/09/06 13:23:59;;;;;;;3.43;2.93;;;;;;;;;;5036734;28;20480;-80
2023/09/06 13:26:26;;;;;;;7.70;3.20;;;;;;;;;;5036667;28;20469;-81
2023/09/06 13:28:53;;;;;;;3.73;2.90;;;;;;;;;;5036957;28;20450;-82
2023/09/06 13:31:20;;;;;;;2.97;2.67;;;;;;;;;;5037218;28;20462;-81
2023/09/06 13:33:48;;;;;;;3.07;2.70;;;;;;;;;;5037472;28;20548;-79
2023/09/06 13:36:16;;;;;;;4.20;3.03;;;;;;;;;;5037054;28;20499;-81
2023/09/06 13:38:43;;;;;;;4.43;3.17;;;;;;;;;;5037038;28;20505;-81
2023/09/06 13:41:12;;;;;;;4.27;2.87;;;;;;;;;;5036342;28;20553;-80
2023/09/06 13:43:40;;;;;;;2.60;2.40;;;;;;;;;;5037375;28;20457;-80
2023/09/06 13:46:07;;;;;;;4.53;3.03;;;;;;;;;;5035953;28;20857;-80
2023/09/06 13:48:34;;;;;;;5.93;2.80;;;;;;;;;;5035067;28;20476;-80
2023/09/06 13:51:01;;;;;;;4.37;3.00;;;;;;;;;;5036306;28;20453;-80
2023/09/06 13:53:28;;;;;;;3.40;3.10;;;;;;;;;;5036284;28;20594;-79
2023/09/06 13:55:57;;;;;;;2.70;2.50;;;;;;;;;;5035698;28;20442;-79
2023/09/06 13:58:26;;;;;;;2.87;2.60;;;;;;;;;;5037111;28;20536;-80
2023/09/06 14:00:57;;;;;;;3.37;3.07;;;;;;;;;;5037252;28;20462;-82
2023/09/06 14:03:24;;;;;;;4.77;3.10;;;;;;;;;;5037055;28;20560;-80
2023/09/06 14:05:51;;;;;;;3.20;2.83;;;;;;;;;;5036975;28;20452;-80
2023/09/06 14:08:18;;;;;;;3.27;2.60;;;;;;;;;;5036958;28;20448;-81
2023/09/06 14:10:45;;;;;;;3.17;2.80;;;;;;;;;;5036839;28;20454;-81
2023/09/06 14:13:13;;;;;;;3.50;2.80;;;;;;;;;;5035864;28;20989;-80
2023/09/06 14:15:44;;;;;;;4.53;2.50;;;;;;;;;;5036846;28;20468;-80
2023/09/06 14:18:12;;;;;;;3.10;2.47;;;;;;;;;;5036619;28;20521;-78
2023/09/06 14:20:39;;;;;;;2.60;2.27;;;;;;;;;;5036688;28;20461;-79
2023/09/06 14:23:06;;;;;;;3.20;2.50;;;;;;;;;;5038551;28;20470;-79
2023/09/06 14:25:34;;;;;;;3.43;2.77;;;;;;;;;;5037439;28;20479;-78
2023/09/06 14:28:01;;;;;;;3.70;3.30;;;;;;;;;;5035613;28;20544;-80
2023/09/06 14:30:28;;;;;;;3.70;2.63;;;;;;;;;;5036637;28;20866;-81
2023/09/06 14:32:57;;;;;;;2.83;2.50;;;;;;;;;;5037166;28;20509;-80
2023/09/06 14:35:24;;;;;;;3.70;2.37;;;;;;;;;;5037008;28;20484;-80
2023/09/06 14:37:51;;;;;;;5.40;2.47;;;;;;;;;;5037640;28;20456;-79
2023/09/06 14:40:19;;;;;;;6.23;2.37;;;;;;;;;;5036509;28;20524;-80
2023/09/06 14:42:46;;;;;;;3.30;3.00;;;;;;;;;;5036708;28;20465;-80
2023/09/06 14:45:15;;;;;;;2.87;2.57;;;;;;;;;;5035366;28;20521;-79
2023/09/06 14:47:43;;;;;;;3.90;2.40;;;;;;;;;;5037383;28;20531;-80
2023/09/06 14:50:12;;;;;;;2.93;2.63;;;;;;;;;;5039100;28;20454;-79
2023/09/06 14:52:39;;;;;;;5.83;2.50;;;;;;;;;;5038758;28;20604;-80
2023/09/06 14:55:07;;;;;;;4.27;2.37;;;;;;;;;;5040644;28;20822;-80
2023/09/06 14:57:34;;;;;;;6.17;2.80;;;;;;;;;;5039538;28;20454;-79